Time;durP1;ratioP1;P1;durP2;ratioP2;P2;SDS_P1;SDS_P2;PMS_P1;PMS_P2;Temp;Humidity;BMP_temperature;BMP_pressure;BME280_temperature;BME280_humidity;BME280_pressure;Samples;Min_cycle;Max_cycle;Signal;HPM_P1;HPM_P2
2022/08/24 00:00:15;;;;;;;8.27;3.70;;;20.60;99.90;;;;;;5015868;28;20458;-78
2022/08/24 00:02:41;;;;;;;10.20;3.78;;;20.60;99.90;;;;;;5015657;28;20513;-78
2022/08/24 00:05:09;;;;;;;6.20;4.50;;;20.60;99.90;;;;;;5015691;28;20235;-78
2022/08/24 00:07:36;;;;;;;5.77;3.90;;;20.60;99.90;;;;;;5015574;28;20829;-78
2022/08/24 00:10:07;;;;;;;4.93;4.00;;;20.60;99.90;;;;;;5015418;28;20529;-78
2022/08/24 00:12:35;;;;;;;3.90;3.50;;;20.50;99.90;;;;;;5015190;28;20481;-78
2022/08/24 00:15:03;;;;;;;4.93;3.53;;;20.50;99.90;;;;;;5015305;28;20941;-78
2022/08/24 00:17:30;;;;;;;6.25;3.60;;;20.50;99.90;;;;;;5015508;28;20493;-78
2022/08/24 00:19:59;;;;;;;6.20;4.73;;;20.50;99.90;;;;;;5015458;28;20262;-78
2022/08/24 00:22:27;;;;;;;4.73;4.20;;;20.40;99.90;;;;;;5015740;28;20817;-78
2022/08/24 00:24:55;;;;;;;11.50;4.37;;;20.40;99.90;;;;;;5014931;28;20483;-79
2022/08/24 00:27:22;;;;;;;7.50;5.07;;;20.30;99.90;;;;;;5015553;28;20486;-78
2022/08/24 00:29:50;;;;;;;9.20;4.80;;;20.30;99.90;;;;;;5015198;28;21041;-78
2022/08/24 00:32:16;;;;;;;8.27;4.50;;;20.30;99.90;;;;;;5015105;28;20474;-78
2022/08/24 00:34:43;;;;;;;7.50;4.70;;;20.20;99.90;;;;;;5015175;28;20204;-79
2022/08/24 00:37:10;;;;;;;7.13;4.63;;;20.20;99.90;;;;;;5014768;28;20516;-79
2022/08/24 00:39:36;;;;;;;12.60;4.67;;;20.10;99.90;;;;;;5014790;28;20874;-78
2022/08/24 00:42:03;;;;;;;8.03;4.50;;;20.10;99.90;;;;;;5014763;28;20953;-78
2022/08/24 00:44:30;;;;;;;6.33;3.87;;;20.10;99.90;;;;;;5014970;28;20482;-78
2022/08/24 00:47:01;;;;;;;9.80;4.07;;;20.00;99.90;;;;;;5014538;28;20862;-78
2022/08/24 00:49:34;;;;;;;6.60;3.90;;;20.00;99.90;;;;;;5014917;28;20804;-78
2022/08/24 00:52:07;;;;;;;6.97;4.37;;;19.90;99.90;;;;;;5014059;28;20474;-78
2022/08/24 00:54:38;;;;;;;7.07;4.07;;;19.90;99.90;;;;;;5014967;28;20425;-78
2022/08/24 00:57:09;;;;;;;8.50;4.70;;;19.80;99.90;;;;;;5014550;28;20218;-78
2022/08/24 00:59:41;;;;;;;7.37;4.33;;;19.80;99.90;;;;;;5014772;28;20429;-78
2022/08/24 01:02:13;;;;;;;8.50;4.90;;;19.70;99.90;;;;;;5014907;28;20449;-78
2022/08/24 01:04:45;;;;;;;5.30;4.63;;;19.60;99.90;;;;;;5014362;28;20282;-78
2022/08/24 01:07:12;;;;;;;10.40;4.53;;;19.50;99.90;;;;;;5014592;28;20561;-78
2022/08/24 01:09:39;;;;;;;6.68;4.68;;;19.50;99.90;;;;;;5014638;28;20428;-78
2022/08/24 01:12:06;;;;;;;9.57;5.17;;;19.40;99.90;;;;;;5014402;28;20236;-78
2022/08/24 01:14:32;;;;;;;9.83;5.40;;;19.30;99.90;;;;;;5014403;28;20476;-78
2022/08/24 01:19:49;;;;;;;15.70;5.80;;;19.20;99.90;;;;;;5014396;28;20513;-79
2022/08/24 01:22:29;;;;;;;7.30;5.10;;;19.20;99.90;;;;;;5014048;28;20719;-78
2022/08/24 01:24:57;;;;;;;12.38;4.75;;;19.10;99.90;;;;;;5013846;28;20494;-78
2022/08/24 01:27:24;;;;;;;6.00;4.80;;;19.00;99.90;;;;;;5013840;28;20212;-79
2022/08/24 01:29:52;;;;;;;8.93;4.80;;;19.00;99.90;;;;;;5015037;28;20473;-78
2022/08/24 01:32:19;;;;;;;5.90;4.43;;;18.90;99.90;;;;;;5015114;28;20444;-78
2022/08/24 01:34:46;;;;;;;6.03;4.50;;;18.90;99.90;;;;;;5015059;28;20262;-78
2022/08/24 01:37:12;;;;;;;6.85;5.10;;;18.80;99.90;;;;;;5014774;28;20466;-78
2022/08/24 01:39:42;;;;;;;5.17;4.67;;;18.80;99.90;;;;;;5014895;28;20286;-78
2022/08/24 01:42:10;;;;;;;7.03;4.70;;;18.70;99.90;;;;;;5013928;28;20858;-78
2022/08/24 01:44:39;;;;;;;11.60;5.30;;;18.70;99.90;;;;;;5013854;28;20460;-78
2022/08/24 01:47:08;;;;;;;7.20;5.60;;;18.60;99.90;;;;;;5013569;28;20459;-78
2022/08/24 01:49:38;;;;;;;5.90;5.13;;;18.50;99.90;;;;;;5014164;28;20429;-78
2022/08/24 01:52:06;;;;;;;9.07;5.50;;;18.40;99.90;;;;;;5013524;28;20515;-78
2022/08/24 01:54:33;;;;;;;9.27;5.80;;;18.40;99.90;;;;;;5013353;28;20426;-78
2022/08/24 01:57:00;;;;;;;9.50;5.43;;;18.40;99.90;;;;;;5013539;28;20434;-78
2022/08/24 01:59:29;;;;;;;9.60;5.60;;;18.30;99.90;;;;;;5013549;28;20430;-79
2022/08/24 02:02:02;;;;;;;11.63;5.83;;;18.30;99.90;;;;;;5013586;28;20450;-78
2022/08/24 02:04:29;;;;;;;12.07;5.80;;;18.20;99.90;;;;;;5013078;28;20460;-78
2022/08/24 02:06:55;;;;;;;10.97;5.57;;;18.20;99.90;;;;;;5013281;28;20513;-78
2022/08/24 02:09:22;;;;;;;11.10;5.40;;;18.10;99.90;;;;;;5013354;28;20888;-78
2022/08/24 02:11:49;;;;;;;7.37;5.27;;;18.10;99.90;;;;;;5013564;28;20573;-78
2022/08/24 02:14:15;;;;;;;6.00;5.40;;;18.10;99.90;;;;;;5013183;28;20424;-78
2022/08/24 02:16:43;;;;;;;11.93;5.20;;;18.10;99.90;;;;;;5013122;28;20514;-78
2022/08/24 02:19:10;;;;;;;7.50;5.30;;;17.90;99.90;;;;;;5013018;28;20429;-78
2022/08/24 02:21:37;;;;;;;8.27;4.50;;;18.00;99.90;;;;;;5012770;28;21031;-79
2022/08/24 02:24:04;;;;;;;6.53;4.93;;;18.00;99.90;;;;;;5012772;28;20708;-78
2022/08/24 02:26:31;;;;;;;6.73;5.67;;;18.00;99.90;;;;;;5012929;28;20460;-78
2022/08/24 02:28:58;;;;;;;7.50;5.50;;;18.00;99.90;;;;;;5012930;28;20497;-78
2022/08/24 02:31:24;;;;;;;9.47;5.67;;;17.90;99.90;;;;;;5012771;28;20771;-78
2022/08/24 02:33:52;;;;;;;7.73;4.70;;;17.90;99.90;;;;;;5012860;28;20418;-78
2022/08/24 02:36:19;;;;;;;8.87;5.37;;;17.90;99.90;;;;;;5012511;28;20504;-78
2022/08/24 02:38:46;;;;;;;5.00;4.50;;;17.90;99.90;;;;;;5013011;28;20820;-78
2022/08/24 02:41:12;;;;;;;8.18;5.00;;;18.00;99.90;;;;;;5012927;28;20501;-78
2022/08/24 02:43:39;;;;;;;11.77;5.07;;;18.00;99.90;;;;;;5012860;28;20208;-78
2022/08/24 02:46:06;;;;;;;5.73;4.60;;;18.00;99.90;;;;;;5012370;28;20899;-78
2022/08/24 02:48:33;;;;;;;8.30;5.30;;;18.00;99.90;;;;;;5012446;28;20430;-78
2022/08/24 02:51:01;;;;;;;9.37;5.97;;;18.00;99.90;;;;;;5012500;28;20470;-78
2022/08/24 02:53:28;;;;;;;10.75;5.25;;;18.00;99.90;;;;;;5012551;28;20524;-78
2022/08/24 02:55:54;;;;;;;5.40;4.68;;;18.00;99.90;;;;;;5012517;28;20203;-78
2022/08/24 02:58:21;;;;;;;6.87;4.97;;;18.00;99.90;;;;;;5012425;28;20223;-78
2022/08/24 03:00:48;;;;;;;5.37;4.87;;;18.00;99.90;;;;;;5012897;28;20512;-78
2022/08/24 03:03:15;;;;;;;7.77;5.10;;;18.00;99.90;;;;;;5012092;28;20824;-78
2022/08/24 03:05:42;;;;;;;9.53;5.27;;;17.90;99.90;;;;;;5012171;28;20523;-78
2022/08/24 03:08:10;;;;;;;18.20;5.30;;;17.90;99.90;;;;;;5012511;28;20430;-78
2022/08/24 03:10:37;;;;;;;5.37;4.80;;;17.90;99.90;;;;;;5012357;28;20421;-78
2022/08/24 03:13:04;;;;;;;8.70;4.97;;;17.90;99.90;;;;;;5012145;28;20883;-78
2022/08/24 03:15:30;;;;;;;7.80;4.50;;;17.90;99.90;;;;;;5012079;28;20432;-79
2022/08/24 03:17:57;;;;;;;5.20;4.70;;;17.90;99.90;;;;;;5012077;28;20206;-78
2022/08/24 03:20:24;;;;;;;6.13;5.00;;;17.90;99.90;;;;;;5012400;28;20208;-79
2022/08/24 03:22:51;;;;;;;7.13;4.77;;;17.90;99.90;;;;;;5012245;28;20445;-78
2022/08/24 03:25:23;;;;;;;7.37;5.50;;;17.80;99.90;;;;;;5011745;28;20459;-78
2022/08/24 03:27:50;;;;;;;6.30;4.93;;;17.80;99.90;;;;;;5012354;28;20417;-78
2022/08/24 03:30:18;;;;;;;7.45;4.95;;;17.80;99.90;;;;;;5012389;28;20511;-78
2022/08/24 03:32:45;;;;;;;6.23;5.10;;;17.80;99.90;;;;;;5012357;28;20235;-78
2022/08/24 03:35:13;;;;;;;8.00;4.73;;;17.80;99.90;;;;;;5011924;28;20418;-78
2022/08/24 03:37:40;;;;;;;7.60;5.20;;;17.80;99.90;;;;;;5012420;28;20447;-78
2022/08/24 03:40:10;;;;;;;9.43;5.20;;;17.80;99.90;;;;;;5012104;28;20422;-78
2022/08/24 03:42:38;;;;;;;6.27;5.63;;;17.80;99.90;;;;;;5012013;28;20481;-78
2022/08/24 03:45:06;;;;;;;7.70;5.85;;;17.70;99.90;;;;;;5011702;28;20490;-78
2022/08/24 03:47:33;;;;;;;10.37;5.33;;;17.70;99.90;;;;;;5011987;28;20863;-78
2022/08/24 03:50:00;;;;;;;7.23;5.03;;;17.70;99.90;;;;;;5011961;28;20517;-78
2022/08/24 03:52:26;;;;;;;9.20;5.47;;;17.60;99.90;;;;;;5012191;28;20475;-78
2022/08/24 03:54:53;;;;;;;7.90;5.70;;;17.60;99.90;;;;;;5013457;28;20425;-78
2022/08/24 03:57:20;;;;;;;10.25;5.63;;;17.60;99.90;;;;;;5012166;28;20926;-78
2022/08/24 03:59:48;;;;;;;10.40;5.60;;;17.60;99.90;;;;;;5011842;28;20270;-78
2022/08/24 04:02:15;;;;;;;9.80;5.20;;;17.50;99.90;;;;;;5011955;28;20445;-78
2022/08/24 04:04:41;;;;;;;6.13;5.03;;;17.50;99.90;;;;;;5011619;28;20509;-78
2022/08/24 04:07:08;;;;;;;7.60;5.47;;;17.50;99.90;;;;;;5011776;28;20451;-78
2022/08/24 04:09:35;;;;;;;5.90;4.87;;;17.40;99.90;;;;;;5011623;28;20446;-78
2022/08/24 04:12:01;;;;;;;6.63;5.07;;;17.40;99.90;;;;;;5011310;28;21052;-78
2022/08/24 04:14:28;;;;;;;6.13;5.17;;;17.40;99.90;;;;;;5011645;28;20450;-78
2022/08/24 04:16:56;;;;;;;13.70;4.60;;;17.40;99.90;;;;;;5011636;28;20504;-78
2022/08/24 04:19:23;;;;;;;9.03;5.00;;;17.40;99.90;;;;;;5011534;28;20215;-78
2022/08/24 04:21:50;;;;;;;7.43;5.00;;;17.30;99.90;;;;;;5011583;28;20471;-78
2022/08/24 04:24:16;;;;;;;11.57;4.95;;;17.30;99.90;;;;;;5011581;28;20458;-78
2022/08/24 04:26:43;;;;;;;7.43;4.85;;;17.30;99.90;;;;;;5011029;28;20231;-78
2022/08/24 04:29:11;;;;;;;6.13;4.60;;;17.30;99.90;;;;;;5015241;28;20238;-78
2022/08/24 04:31:38;;;;;;;8.20;4.80;;;17.30;99.90;;;;;;5015088;28;20285;-78
2022/08/24 04:34:06;;;;;;;5.83;5.17;;;17.30;99.90;;;;;;5015119;28;20462;-78
2022/08/24 04:36:33;;;;;;;6.57;4.87;;;17.30;99.90;;;;;;5014894;28;20464;-78
2022/08/24 04:39:00;;;;;;;5.70;4.80;;;17.40;99.90;;;;;;5014802;28;20501;-78
2022/08/24 04:41:27;;;;;;;7.00;5.00;;;17.40;99.90;;;;;;5015102;28;20445;-78
2022/08/24 04:43:54;;;;;;;7.27;4.80;;;17.40;99.90;;;;;;5015201;28;20806;-78
2022/08/24 04:46:21;;;;;;;8.57;4.63;;;17.40;99.90;;;;;;5014496;28;20482;-79
2022/08/24 04:48:49;;;;;;;5.15;4.65;;;17.40;99.90;;;;;;5014948;28;20796;-78
2022/08/24 04:51:19;;;;;;;14.43;4.70;;;17.40;99.90;;;;;;5014684;28;20255;-78
2022/08/24 04:53:47;;;;;;;5.03;4.53;;;17.50;99.90;;;;;;5014546;28;20430;-78
2022/08/24 04:56:16;;;;;;;7.33;5.40;;;17.50;99.90;;;;;;5014294;28;20482;-78
2022/08/24 04:58:44;;;;;;;8.40;4.80;;;17.50;99.90;;;;;;5014563;28;20865;-78
2022/08/24 05:01:14;;;;;;;5.53;4.90;;;17.60;99.90;;;;;;5014289;28;20539;-78
2022/08/24 05:03:41;;;;;;;8.13;5.63;;;17.60;99.90;;;;;;5014710;28;20461;-78
2022/08/24 05:06:10;;;;;;;12.80;4.93;;;17.70;99.90;;;;;;5013962;28;20478;-78
2022/08/24 05:08:38;;;;;;;7.40;4.90;;;17.70;99.90;;;;;;5014684;28;20513;-78
2022/08/24 05:11:07;;;;;;;8.93;6.17;;;17.80;99.90;;;;;;5014690;28;20480;-78
2022/08/24 05:13:33;;;;;;;12.07;7.40;;;17.80;99.90;;;;;;5014403;28;20430;-79
2022/08/24 05:16:00;;;;;;;10.53;6.23;;;17.80;99.90;;;;;;5014134;28;20421;-78
2022/08/24 05:18:28;;;;;;;17.02;6.10;;;17.90;99.90;;;;;;5014504;28;20520;-78
2022/08/24 05:20:55;;;;;;;8.40;5.47;;;18.00;99.90;;;;;;5014701;28;20285;-78
2022/08/24 05:23:22;;;;;;;11.37;5.50;;;18.10;99.90;;;;;;5014163;28;20441;-78
2022/08/24 05:25:51;;;;;;;10.47;5.20;;;18.20;99.90;;;;;;5013836;28;20896;-78
2022/08/24 05:28:19;;;;;;;5.80;4.77;;;18.40;99.90;;;;;;5014063;28;20478;-78
2022/08/24 05:30:45;;;;;;;4.50;4.20;;;18.60;99.90;;;;;;5014133;28;20441;-78
2022/08/24 05:33:12;;;;;;;16.23;4.57;;;19.00;99.90;;;;;;5013751;28;20446;-79
2022/08/24 05:35:40;;;;;;;6.90;4.20;;;19.30;99.90;;;;;;5013542;28;20538;-78
2022/08/24 05:38:08;;;;;;;9.53;5.00;;;19.60;99.90;;;;;;5013749;28;20703;-77
2022/08/24 05:40:37;;;;;;;7.80;4.50;;;19.90;99.90;;;;;;5014524;28;20452;-79
2022/08/24 05:43:05;;;;;;;12.87;5.03;;;20.30;99.90;;;;;;5017961;28;20645;-79
2022/08/24 05:45:32;;;;;;;15.57;4.50;;;20.50;99.90;;;;;;5017387;28;20481;-79
2022/08/24 05:47:58;;;;;;;8.95;3.80;;;20.70;99.90;;;;;;5017189;28;20437;-79
2022/08/24 05:50:25;;;;;;;17.47;4.77;;;20.90;99.90;;;;;;5013722;28;20219;-77
2022/08/24 05:52:51;;;;;;;7.17;4.23;;;21.10;99.90;;;;;;5013723;28;20474;-77
2022/08/24 05:55:18;;;;;;;5.83;4.67;;;21.30;99.90;;;;;;5013747;28;20458;-77
2022/08/24 05:57:45;;;;;;;10.57;4.40;;;21.40;99.90;;;;;;5013567;28;20435;-78
2022/08/24 06:00:14;;;;;;;9.97;5.03;;;21.70;99.90;;;;;;5013187;28;20451;-78
2022/08/24 06:02:41;;;;;;;9.47;4.30;;;21.90;99.90;;;;;;5013302;28;20572;-78
2022/08/24 06:05:09;;;;;;;16.13;5.50;;;22.20;99.90;;;;;;5013144;28;20451;-78
2022/08/24 06:07:36;;;;;;;14.00;5.50;;;22.30;99.90;;;;;;5013589;28;20443;-78
2022/08/24 06:10:03;;;;;;;19.93;8.57;;;22.30;99.90;;;;;;5013412;28;20454;-78
2022/08/24 06:12:30;;;;;;;14.40;5.90;;;22.30;99.90;;;;;;5013208;28;20475;-78
2022/08/24 06:14:56;;;;;;;10.73;5.80;;;22.30;99.90;;;;;;5012797;28;20509;-78
2022/08/24 06:17:24;;;;;;;20.67;8.03;;;22.30;99.90;;;;;;5013356;28;20520;-78
2022/08/24 06:19:51;;;;;;;33.00;9.00;;;22.40;99.90;;;;;;5013304;28;20451;-77
2022/08/24 06:22:17;;;;;;;18.80;8.33;;;22.70;99.90;;;;;;5013398;28;20470;-78
2022/08/24 06:27:29;;;;;;;12.33;6.40;;;23.40;99.90;;;;;;5012917;28;20489;-78
2022/08/24 06:29:58;;;;;;;11.17;5.03;;;23.50;99.90;;;;;;5012845;28;20839;-78
2022/08/24 06:32:26;;;;;;;10.40;4.33;;;23.40;99.90;;;;;;5013059;28;20521;-77
2022/08/24 06:34:56;;;;;;;10.53;3.67;;;23.40;99.90;;;;;;5012988;28;20459;-78
2022/08/24 06:37:25;;;;;;;4.60;3.70;;;23.60;99.90;;;;;;5012922;28;20449;-78
2022/08/24 06:39:52;;;;;;;5.60;3.70;;;23.70;99.90;;;;;;5012912;28;20212;-78
2022/08/24 06:42:19;;;;;;;8.20;3.70;;;23.80;99.90;;;;;;5013022;28;20466;-78
2022/08/24 06:44:45;;;;;;;7.33;3.53;;;23.90;99.90;;;;;;5013154;28;20455;-78
2022/08/24 06:47:12;;;;;;;8.67;3.47;;;23.80;99.90;;;;;;5012588;28;20489;-78
2022/08/24 06:49:40;;;;;;;5.00;3.90;;;23.60;99.90;;;;;;5012554;28;20432;-78
2022/08/24 06:52:08;;;;;;;7.63;3.60;;;23.40;99.90;;;;;;5012373;28;20825;-78
2022/08/24 06:54:36;;;;;;;5.43;3.30;;;23.40;99.90;;;;;;5012378;28;20450;-78
2022/08/24 06:57:02;;;;;;;6.30;3.37;;;23.30;99.90;;;;;;5012358;28;20565;-78
2022/08/24 06:59:29;;;;;;;6.60;3.33;;;23.40;99.90;;;;;;5012586;28;20525;-78
2022/08/24 07:01:56;;;;;;;7.67;3.43;;;23.50;99.90;;;;;;5012153;28;20826;-78
2022/08/24 07:04:25;;;;;;;5.83;3.43;;;23.70;99.90;;;;;;5012664;28;20513;-78
2022/08/24 07:06:54;;;;;;;4.80;3.57;;;23.90;99.90;;;;;;5012055;28;20582;-78
2022/08/24 07:09:23;;;;;;;5.53;3.50;;;23.90;99.90;;;;;;5012219;28;20974;-78
2022/08/24 07:11:50;;;;;;;3.67;3.37;;;24.00;99.90;;;;;;5012353;28;20899;-78
2022/08/24 07:14:17;;;;;;;8.67;3.50;;;24.20;99.90;;;;;;5012454;28;20452;-78
2022/08/24 07:16:43;;;;;;;3.93;2.80;;;24.30;99.90;;;;;;5011912;28;20455;-78
2022/08/24 07:19:10;;;;;;;5.43;4.55;;;24.40;99.90;;;;;;5012246;28;21008;-78
2022/08/24 07:21:37;;;;;;;4.90;3.70;;;24.40;99.90;;;;;;5011926;28;20228;-78
2022/08/24 07:24:06;;;;;;;9.43;3.40;;;24.50;99.90;;;;;;5012275;28;20455;-78
2022/08/24 07:26:33;;;;;;;4.77;3.20;;;24.30;99.90;;;;;;5011767;28;21009;-78
2022/08/24 07:29:05;;;;;;;7.00;3.37;;;24.30;99.90;;;;;;5012402;28;20455;-77
2022/08/24 07:31:32;;;;;;;5.00;3.47;;;24.40;99.90;;;;;;5011986;28;20480;-78
2022/08/24 07:33:59;;;;;;;4.30;3.50;;;24.50;99.90;;;;;;5011970;28;20451;-78
2022/08/24 07:36:25;;;;;;;3.60;3.27;;;24.80;99.90;;;;;;5011942;28;20451;-78
2022/08/24 07:38:52;;;;;;;7.93;3.70;;;24.70;99.90;;;;;;5012137;28;20492;-78
2022/08/24 07:41:21;;;;;;;4.80;3.50;;;24.70;99.90;;;;;;5011773;28;20895;-78
2022/08/24 07:43:48;;;;;;;11.00;3.50;;;24.50;99.90;;;;;;5012113;28;20517;-78
2022/08/24 07:46:14;;;;;;;6.23;2.90;;;24.60;99.90;;;;;;5011838;28;21065;-78
2022/08/24 07:48:41;;;;;;;4.17;3.20;;;24.60;99.90;;;;;;5011850;28;21164;-78
2022/08/24 07:51:08;;;;;;;7.60;2.73;;;24.80;99.90;;;;;;5011614;28;20466;-78
2022/08/24 07:53:35;;;;;;;5.40;3.00;;;24.80;99.90;;;;;;5011934;28;20467;-78
2022/08/24 07:56:02;;;;;;;7.07;3.10;;;24.80;99.90;;;;;;5011705;28;20473;-78
2022/08/24 07:58:31;;;;;;;3.57;2.70;;;24.80;99.90;;;;;;5011677;28;20749;-78
2022/08/24 08:00:58;;;;;;;4.90;3.03;;;25.00;99.90;;;;;;5011696;28;20856;-78
2022/08/24 08:03:28;;;;;;;3.47;2.50;;;25.30;99.90;;;;;;5014208;28;20874;-78
2022/08/24 08:05:56;;;;;;;5.63;2.60;;;25.80;99.90;;;;;;5015261;28;20469;-78
2022/08/24 08:08:23;;;;;;;3.53;2.67;;;26.20;99.90;;;;;;5015691;28;20455;-78
2022/08/24 08:10:50;;;;;;;6.50;2.43;;;26.40;99.90;;;;;;5015593;28;20458;-78
2022/08/24 08:13:17;;;;;;;3.60;2.43;;;26.50;99.90;;;;;;5015448;28;21018;-78
2022/08/24 08:15:45;;;;;;;3.60;3.30;;;26.60;99.90;;;;;;5015157;28;20447;-78
2022/08/24 08:18:13;;;;;;;6.83;2.40;;;26.80;99.90;;;;;;5015484;28;20509;-78
2022/08/24 08:20:41;;;;;;;5.87;2.80;;;27.00;99.90;;;;;;5015365;28;20935;-78
2022/08/24 08:25:56;;;;;;;5.40;2.90;;;27.10;99.90;;;;;;5015389;28;20286;-78
2022/08/24 08:28:23;;;;;;;2.77;2.47;;;27.40;99.90;;;;;;5015658;28;20865;-78
2022/08/24 08:30:52;;;;;;;2.67;2.30;;;27.40;99.90;;;;;;5015434;28;20486;-77
2022/08/24 08:33:18;;;;;;;8.23;2.87;;;27.60;99.90;;;;;;5015290;28;20478;-78
2022/08/24 08:35:45;;;;;;;4.27;2.73;;;27.50;99.90;;;;;;5015086;28;20451;-78
2022/08/24 08:38:12;;;;;;;8.90;2.93;;;27.40;99.90;;;;;;5015133;28;20492;-79
2022/08/24 08:40:54;;;;;;;5.80;2.60;;;27.40;99.90;;;;;;5015070;28;20450;-79
2022/08/24 08:43:35;;;;;;;3.00;2.37;;;27.40;99.90;;;;;;5015005;28;20473;-79
2022/08/24 08:46:20;;;;;;;5.23;2.80;;;27.40;99.90;;;;;;5014794;28;20869;-79
2022/08/24 08:49:08;;;;;;;4.03;2.43;;;27.50;99.90;;;;;;5014992;28;20520;-79
2022/08/24 08:52:35;;;;;;;11.40;2.37;;;27.70;99.90;;;;;;5014875;28;20483;-79
2022/08/24 08:55:15;;;;;;;4.60;2.80;;;27.70;99.90;;;;;;5012256;28;20967;-79
2022/08/24 08:57:54;;;;;;;5.47;2.50;;;27.80;99.90;;;;;;5012374;28;20942;-79
2022/08/24 09:00:23;;;;;;;12.37;2.70;;;28.00;99.90;;;;;;5013959;28;20822;-79
2022/08/24 09:03:24;;;;;;;6.30;2.45;;;28.00;99.90;;;;;;5014650;28;20512;-79
2022/08/24 09:06:34;;;;;;;3.67;2.47;;;28.10;99.90;;;;;;5014659;28;20636;-79
2022/08/24 09:09:23;;;;;;;4.70;2.40;;;28.50;99.80;;;;;;5014803;28;20546;-79
2022/08/24 09:12:00;;;;;;;8.30;2.70;;;28.80;99.60;;;;;;5014775;28;20494;-79
2022/08/24 09:14:53;;;;;;;7.80;2.80;;;28.40;98.80;;;;;;5014658;28;20458;-79
2022/08/24 09:17:33;;;;;;;5.20;2.73;;;28.40;99.50;;;;;;5014775;28;20565;-79
2022/08/24 09:20:15;;;;;;;4.53;2.60;;;28.50;99.00;;;;;;5014675;28;20838;-79
2022/08/24 09:22:46;;;;;;;7.53;2.90;;;28.50;99.20;;;;;;5014118;28;20478;-79
2022/08/24 09:25:25;;;;;;;4.53;2.20;;;28.70;99.30;;;;;;5014089;28;20458;-79
2022/08/24 09:28:12;;;;;;;6.27;4.40;;;29.00;98.80;;;;;;5014282;28;20489;-79
2022/08/24 09:30:57;;;;;;;7.40;2.77;;;29.10;98.10;;;;;;5013828;28;20867;-79
2022/08/24 09:33:30;;;;;;;8.83;2.50;;;29.20;98.30;;;;;;5014140;28;20474;-78
2022/08/24 09:36:07;;;;;;;8.90;2.30;;;29.30;97.90;;;;;;5014209;28;20474;-79
2022/08/24 09:38:59;;;;;;;7.60;2.63;;;29.20;97.10;;;;;;5017303;28;20497;-80
2022/08/24 09:41:58;;;;;;;2.33;2.13;;;29.30;97.60;;;;;;5018582;28;20458;-80
2022/08/24 09:44:51;;;;;;;3.03;2.20;;;29.60;97.80;;;;;;5015226;28;20478;-81
2022/08/24 09:47:41;;;;;;;5.05;2.25;;;29.80;96.10;;;;;;5014014;28;20540;-81
2022/08/24 09:50:36;;;;;;;4.23;2.20;;;29.60;95.70;;;;;;5014201;28;20750;-80
2022/08/24 09:53:40;;;;;;;6.60;2.40;;;29.50;95.80;;;;;;5013828;28;20986;-80
2022/08/24 09:56:20;;;;;;;4.67;2.70;;;29.70;95.70;;;;;;5012690;28;20505;-80
2022/08/24 09:59:01;;;;;;;2.83;2.03;;;30.20;95.30;;;;;;5014439;28;20466;-80
2022/08/24 10:01:36;;;;;;;3.03;2.30;;;30.60;95.40;;;;;;5014390;28;20514;-80
2022/08/24 10:04:21;;;;;;;3.20;2.40;;;30.90;94.50;;;;;;5014285;28;20234;-81
2022/08/24 10:06:56;;;;;;;6.80;2.30;;;31.00;94.20;;;;;;5014428;28;20552;-80
2022/08/24 10:10:02;;;;;;;5.00;2.10;;;31.20;93.70;;;;;;5015800;28;20457;-80
2022/08/24 10:12:45;;;;;;;7.27;2.07;;;30.90;93.80;;;;;;5010729;28;20502;-80
2022/08/24 10:15:19;;;;;;;7.53;2.60;;;31.00;93.50;;;;;;5014640;28;20915;-80
2022/08/24 10:18:04;;;;;;;4.70;2.07;;;31.10;92.80;;;;;;5014559;28;20808;-80
2022/08/24 10:20:52;;;;;;;2.70;2.10;;;31.20;92.90;;;;;;5014204;28;20793;-80
2022/08/24 10:23:35;;;;;;;6.50;2.20;;;31.40;92.80;;;;;;5013650;28;20520;-80
2022/08/24 10:26:07;;;;;;;4.13;1.80;;;31.70;92.70;;;;;;5013143;28;20451;-80
2022/08/24 10:29:01;;;;;;;3.80;2.03;;;31.80;91.90;;;;;;5013384;28;20521;-81
2022/08/24 10:31:33;;;;;;;10.13;3.07;;;32.30;92.10;;;;;;5015265;28;21042;-80
2022/08/24 10:34:25;;;;;;;3.57;2.00;;;32.60;91.50;;;;;;5014277;28;20527;-79
2022/08/24 10:37:20;;;;;;;4.97;2.28;;;32.40;91.30;;;;;;5014180;28;20443;-79
2022/08/24 10:40:30;;;;;;;4.60;1.70;;;32.50;91.20;;;;;;5013870;28;20215;-79
2022/08/24 10:43:35;;;;;;;2.40;2.20;;;32.80;89.10;;;;;;5012436;28;20474;-79
2022/08/24 10:46:44;;;;;;;5.72;2.20;;;33.10;86.10;;;;;;5014283;28;20464;-80
2022/08/24 10:49:44;;;;;;;6.53;2.03;;;33.10;85.60;;;;;;5013009;28;20221;-78
2022/08/24 10:52:47;;;;;;;2.97;1.90;;;33.20;83.30;;;;;;5012401;28;20244;-79
2022/08/24 10:55:19;;;;;;;3.07;1.53;;;33.00;85.00;;;;;;5012412;28;20490;-78
2022/08/24 10:57:58;;;;;;;3.90;2.25;;;32.90;84.00;;;;;;5012686;28;20488;-78
2022/08/24 11:00:28;;;;;;;4.35;2.20;;;32.80;84.50;;;;;;5012606;28;20211;-78
2022/08/24 11:03:08;;;;;;;3.00;1.70;;;32.70;83.60;;;;;;5012862;28;20232;-78
2022/08/24 11:05:39;;;;;;;6.33;1.97;;;32.70;82.90;;;;;;5012229;28;20946;-79
2022/08/24 11:08:07;;;;;;;4.03;2.33;;;32.80;83.60;;;;;;5012379;28;21013;-79
2022/08/24 11:10:36;;;;;;;2.40;2.20;;;32.60;83.00;;;;;;5012201;28;20897;-79
2022/08/24 11:13:25;;;;;;;6.33;2.50;;;32.80;84.40;;;;;;5012171;28;21037;-79
2022/08/24 11:15:54;;;;;;;7.15;1.95;;;32.90;82.50;;;;;;5012414;28;20450;-79
2022/08/24 11:18:23;;;;;;;6.70;1.87;;;33.10;82.60;;;;;;5012236;28;20207;-79
2022/08/24 11:20:51;;;;;;;2.33;1.90;;;33.70;82.00;;;;;;5012191;28;20446;-79
2022/08/24 11:23:21;;;;;;;3.13;2.27;;;34.20;80.50;;;;;;5011888;28;20525;-79
2022/08/24 11:25:55;;;;;;;2.38;2.17;;;34.30;80.30;;;;;;5011802;28;20437;-79
2022/08/24 11:28:29;;;;;;;3.03;1.83;;;34.50;79.00;;;;;;5012044;28;20227;-80
2022/08/24 11:30:56;;;;;;;3.20;2.33;;;34.80;78.70;;;;;;5012837;28;20469;-77
2022/08/24 11:33:30;;;;;;;6.83;2.50;;;34.70;78.50;;;;;;5012579;28;20786;-79
2022/08/24 11:35:58;;;;;;;2.37;2.00;;;34.60;77.30;;;;;;5011682;28;20442;-79
2022/08/24 11:38:27;;;;;;;3.93;2.23;;;34.50;76.50;;;;;;5011236;28;20943;-79
2022/08/24 11:40:59;;;;;;;8.00;2.30;;;34.30;76.70;;;;;;5012008;28;20509;-79
2022/08/24 11:43:40;;;;;;;6.20;2.43;;;34.50;77.00;;;;;;5011788;28;20894;-79
2022/08/24 11:46:17;;;;;;;4.03;2.20;;;34.70;76.70;;;;;;5011612;28;20513;-79
2022/08/24 11:48:58;;;;;;;4.32;1.70;;;35.20;75.60;;;;;;5012079;28;20489;-79
2022/08/24 11:51:37;;;;;;;7.30;2.40;;;35.60;74.00;;;;;;5011927;28;20216;-79
2022/08/24 11:54:12;;;;;;;11.83;2.27;;;35.30;72.90;;;;;;5012188;28;20890;-79
2022/08/24 11:56:45;;;;;;;2.83;2.10;;;34.60;74.00;;;;;;5011832;28;20442;-79
2022/08/24 11:59:19;;;;;;;4.90;2.40;;;35.00;74.70;;;;;;5012277;28;20204;-79
2022/08/24 12:01:51;;;;;;;6.37;2.53;;;35.60;73.70;;;;;;5012657;28;20890;-79
2022/08/24 12:04:33;;;;;;;11.67;2.43;;;36.00;71.80;;;;;;5012585;28;20462;-79
2022/08/24 12:07:08;;;;;;;4.23;2.40;;;36.20;70.20;;;;;;5011926;28;20454;-79
2022/08/24 12:09:48;;;;;;;3.47;2.40;;;36.40;70.50;;;;;;5012483;28;20476;-79
2022/08/24 12:12:22;;;;;;;8.93;2.67;;;36.40;69.80;;;;;;5013949;28;20521;-79
2022/08/24 12:14:59;;;;;;;7.03;2.77;;;36.00;67.90;;;;;;5013907;28;20517;-79
2022/08/24 12:17:33;;;;;;;3.30;2.67;;;35.60;69.30;;;;;;5013189;28;20459;-80
2022/08/24 12:20:05;;;;;;;4.50;3.10;;;35.70;69.50;;;;;;5013837;28;20457;-79
2022/08/24 12:22:32;;;;;;;6.13;2.50;;;35.50;69.00;;;;;;5013214;28;20471;-79
2022/08/24 12:26:00;;;;;;;4.53;2.30;;;35.50;68.60;;;;;;5013812;28;20509;-79
2022/08/24 12:27:51;;;;;;;12.83;2.20;;;35.20;69.30;;;;;;5013527;28;21022;-79
2022/08/24 12:30:18;;;;;;;3.80;3.08;;;35.00;68.70;;;;;;5012507;28;20450;-79
2022/08/24 12:32:49;;;;;;;3.53;2.30;;;34.80;68.90;;;;;;5012376;28;20359;-79
2022/08/24 12:35:23;;;;;;;2.53;2.33;;;34.50;69.20;;;;;;5012099;28;20994;-79
2022/08/24 12:37:57;;;;;;;3.57;2.37;;;34.50;69.60;;;;;;5012233;28;20921;-80
2022/08/24 12:40:29;;;;;;;4.87;2.37;;;34.60;70.20;;;;;;5011879;28;21005;-80
2022/08/24 12:43:01;;;;;;;7.20;2.60;;;34.60;70.60;;;;;;5011811;28;20471;-78
2022/08/24 12:45:28;;;;;;;5.67;2.60;;;34.50;69.60;;;;;;5011923;28;20486;-79
2022/08/24 12:48:02;;;;;;;5.97;2.80;;;34.70;69.80;;;;;;5011699;28;20482;-78
2022/08/24 12:50:39;;;;;;;6.17;2.20;;;34.80;70.10;;;;;;5014874;28;20463;-78
2022/08/24 12:53:43;;;;;;;4.70;2.37;;;34.90;69.80;;;;;;5014932;28;20480;-78
2022/08/24 12:56:31;;;;;;;2.10;1.90;;;35.10;70.90;;;;;;5013799;28;20453;-78
2022/08/24 12:59:07;;;;;;;5.20;2.30;;;35.50;70.40;;;;;;5014571;28;21009;-78
2022/08/24 13:01:41;;;;;;;3.97;2.60;;;35.60;69.30;;;;;;5014950;28;20522;-78
2022/08/24 13:04:14;;;;;;;6.28;2.40;;;35.60;70.30;;;;;;5014905;28;20265;-78
2022/08/24 13:06:47;;;;;;;3.40;2.30;;;35.80;68.20;;;;;;5014339;28;20263;-78
2022/08/24 13:09:27;;;;;;;4.80;2.23;;;36.00;68.70;;;;;;5014548;28;20532;-78
2022/08/24 13:11:54;;;;;;;4.77;2.10;;;36.10;68.60;;;;;;5014592;28;20477;-79
2022/08/24 13:14:23;;;;;;;5.13;2.23;;;36.00;67.10;;;;;;5014919;28;20451;-78
2022/08/24 13:17:07;;;;;;;4.20;2.47;;;35.60;67.90;;;;;;5014283;28;20453;-78